createdAt,value
2022-12-05T00:01:21.450Z,3.90
2022-12-05T00:04:23.316Z,3.90
2022-12-05T00:07:25.104Z,3.90
2022-12-05T00:10:26.862Z,3.90
2022-12-05T00:13:28.739Z,3.90
2022-12-05T00:16:32.897Z,3.90
2022-12-05T00:19:34.863Z,4.00
2022-12-05T00:22:38.467Z,4.00
2022-12-05T00:25:40.786Z,3.90
2022-12-05T00:28:42.986Z,3.90
2022-12-05T00:31:45.018Z,3.90
2022-12-05T00:34:46.837Z,4.00
2022-12-05T00:37:48.682Z,4.00
2022-12-05T00:40:50.421Z,4.00
2022-12-05T00:43:53.973Z,4.00
2022-12-05T00:46:55.671Z,4.00
2022-12-05T00:49:57.691Z,4.00
2022-12-05T00:52:59.613Z,4.00
2022-12-05T00:56:07.633Z,4.00
2022-12-05T00:59:12.581Z,3.90
2022-12-05T01:02:14.738Z,3.90
2022-12-05T01:05:16.630Z,4.00
2022-12-05T01:08:18.444Z,4.00
2022-12-05T01:11:21.176Z,4.00
2022-12-05T01:14:25.639Z,4.00
2022-12-05T01:17:27.562Z,4.00
2022-12-05T01:20:29.580Z,4.00
2022-12-05T01:23:31.370Z,4.00
2022-12-05T01:26:33.320Z,3.90
2022-12-05T01:29:35.382Z,3.90
2022-12-05T01:32:37.406Z,3.90
2022-12-05T01:35:40.912Z,3.90
2022-12-05T01:38:43.251Z,3.80
2022-12-05T01:41:48.245Z,3.80
2022-12-05T01:44:52.911Z,3.90
2022-12-05T01:47:55.204Z,3.90
2022-12-05T01:50:58.321Z,3.90
2022-12-05T01:54:01.272Z,3.90
2022-12-05T01:57:06.491Z,3.90
2022-12-05T02:00:17.915Z,3.90
2022-12-05T02:03:20.942Z,3.90
2022-12-05T02:06:23.903Z,3.80
2022-12-05T02:09:25.674Z,3.80
2022-12-05T02:12:27.773Z,3.70
2022-12-05T02:15:56.851Z,3.70
2022-12-05T02:19:18.620Z,3.70
2022-12-05T02:22:46.478Z,3.70
2022-12-05T02:26:25.508Z,3.60
2022-12-05T02:29:38.825Z,3.70
2022-12-05T02:33:17.602Z,3.80
2022-12-05T02:36:39.861Z,3.80
2022-12-05T02:39:54.857Z,3.70
2022-12-05T02:43:02.544Z,3.70
2022-12-05T02:46:12.976Z,3.70
2022-12-05T02:49:23.516Z,3.70
2022-12-05T02:52:26.658Z,3.70
2022-12-05T02:55:30.705Z,3.70
2022-12-05T02:58:37.853Z,3.60
2022-12-05T03:01:40.127Z,3.60
2022-12-05T03:04:41.940Z,3.60
2022-12-05T03:07:47.676Z,3.60
2022-12-05T03:10:51.298Z,3.60
2022-12-05T03:13:57.767Z,3.60
2022-12-05T03:17:05.878Z,3.60
2022-12-05T03:20:32.497Z,3.60
2022-12-05T03:23:42.862Z,3.60
2022-12-05T03:27:08.717Z,3.60
2022-12-05T03:30:14.409Z,3.60
2022-12-05T03:33:27.788Z,3.50
2022-12-05T03:36:37.598Z,3.50
2022-12-05T03:39:45.192Z,3.50
2022-12-05T03:43:16.880Z,3.60
2022-12-05T03:46:32.415Z,3.40
2022-12-05T03:49:58.415Z,3.50
2022-12-05T03:53:21.061Z,3.50
2022-12-05T03:56:35.156Z,3.60
2022-12-05T04:00:00.643Z,3.50
2022-12-05T04:03:17.911Z,3.50
2022-12-05T04:06:31.809Z,3.50
2022-12-05T04:09:49.387Z,3.50
2022-12-05T04:12:55.047Z,3.50
2022-12-05T04:16:23.292Z,3.40
2022-12-05T04:19:25.246Z,3.40
2022-12-05T04:22:27.865Z,3.40
2022-12-05T04:25:39.662Z,3.40
2022-12-05T04:28:41.330Z,3.40
2022-12-05T04:31:47.810Z,3.40
2022-12-05T04:34:55.840Z,3.30
2022-12-05T04:38:22.185Z,3.20
2022-12-05T04:41:32.395Z,3.20
2022-12-05T04:44:40.768Z,3.30
2022-12-05T04:47:47.926Z,3.20
2022-12-05T04:50:53.448Z,3.10
2022-12-05T04:54:02.055Z,3.20
2022-12-05T04:57:25.752Z,3.20
2022-12-05T05:00:30.289Z,3.10
2022-12-05T05:03:42.679Z,3.20
2022-12-05T05:06:44.515Z,3.20
2022-12-05T05:09:46.457Z,3.20
2022-12-05T05:12:51.327Z,3.10
2022-12-05T05:15:53.253Z,3.10
2022-12-05T05:18:55.565Z,3.10
2022-12-05T05:21:57.573Z,3.10
2022-12-05T05:24:59.906Z,3.00
2022-12-05T05:28:01.955Z,3.00
2022-12-05T05:31:04.801Z,3.00
2022-12-05T05:34:09.711Z,3.00
2022-12-05T05:37:12.034Z,3.00
2022-12-05T05:40:14.603Z,3.00
2022-12-05T05:43:16.408Z,3.00
2022-12-05T05:46:20.368Z,3.00
2022-12-05T05:49:22.206Z,3.00
2022-12-05T05:52:24.223Z,2.80
2022-12-05T05:55:26.041Z,2.80
2022-12-05T05:58:27.758Z,2.90
2022-12-05T06:01:30.435Z,2.90
2022-12-05T06:04:34.458Z,2.90
2022-12-05T06:07:36.413Z,2.90
2022-12-05T06:10:39.279Z,2.80
2022-12-05T06:13:41.492Z,2.80
2022-12-05T06:16:43.436Z,2.80
2022-12-05T06:19:45.139Z,2.80
2022-12-05T06:22:46.822Z,2.70
2022-12-05T06:25:53.757Z,2.80
2022-12-05T06:28:55.491Z,2.70
2022-12-05T06:31:57.271Z,2.80
2022-12-05T06:34:59.340Z,2.80
2022-12-05T06:38:01.358Z,2.80
2022-12-05T06:41:07.913Z,2.80
2022-12-05T06:44:10.609Z,2.80
2022-12-05T06:47:12.386Z,2.80
2022-12-05T06:50:14.234Z,2.70
2022-12-05T06:53:16.050Z,2.80
2022-12-05T06:56:19.868Z,2.80
2022-12-05T06:59:21.634Z,2.80
2022-12-05T07:02:23.367Z,2.90
2022-12-05T07:05:25.155Z,2.90
2022-12-05T07:08:27.042Z,2.90
2022-12-05T07:11:29.269Z,2.90
2022-12-05T07:14:46.973Z,2.90
2022-12-05T07:17:50.120Z,2.80
2022-12-05T07:21:12.228Z,2.80
2022-12-05T07:24:14.907Z,2.80
2022-12-05T07:27:20.614Z,2.90
2022-12-05T07:30:25.461Z,2.80
2022-12-05T07:33:27.332Z,2.90
2022-12-05T07:36:29.193Z,2.90
2022-12-05T07:39:31.096Z,2.90
2022-12-05T07:42:32.847Z,2.90
2022-12-05T07:45:35.763Z,2.90
2022-12-05T07:48:37.901Z,2.90
2022-12-05T07:51:39.827Z,2.90
2022-12-05T07:54:41.762Z,2.90
2022-12-05T07:57:43.630Z,2.90
2022-12-05T08:00:45.381Z,2.90
2022-12-05T08:03:48.207Z,2.80
2022-12-05T08:06:50.104Z,2.80
2022-12-05T08:09:52.063Z,2.80
2022-12-05T08:12:53.874Z,2.90
2022-12-05T08:15:55.568Z,2.90
2022-12-05T08:19:03.181Z,2.90
2022-12-05T08:22:05.015Z,2.90
2022-12-05T08:25:07.509Z,2.90
2022-12-05T08:28:09.366Z,2.90
2022-12-05T08:31:14.890Z,2.90
2022-12-05T08:34:18.887Z,2.90
2022-12-05T08:37:20.704Z,2.90
2022-12-05T08:40:22.533Z,2.90
2022-12-05T08:43:24.708Z,2.90
2022-12-05T08:46:27.087Z,3.00
2022-12-05T08:49:28.943Z,2.90
2022-12-05T08:52:30.759Z,2.90
2022-12-05T08:55:37.639Z,3.00
2022-12-05T08:58:40.557Z,3.00
2022-12-05T09:01:42.497Z,2.90
2022-12-05T09:04:47.284Z,2.90
2022-12-05T09:07:51.412Z,3.00
2022-12-05T09:10:53.189Z,3.00
2022-12-05T09:13:57.902Z,3.00
2022-12-05T09:17:00.941Z,3.00
2022-12-05T09:20:03.726Z,2.90
2022-12-05T09:23:05.457Z,2.90
2022-12-05T09:26:09.950Z,3.00
2022-12-05T09:29:17.119Z,3.00
2022-12-05T09:32:19.399Z,3.00
2022-12-05T09:35:21.260Z,3.00
2022-12-05T09:38:23.707Z,3.00
2022-12-05T09:42:02.911Z,3.00
2022-12-05T09:45:25.856Z,3.00
2022-12-05T09:48:28.204Z,3.10
2022-12-05T09:51:30.562Z,3.10
2022-12-05T09:54:32.953Z,3.20
2022-12-05T09:57:38.261Z,3.20
2022-12-05T10:00:40.987Z,3.20
2022-12-05T10:03:47.454Z,3.10
2022-12-05T10:07:16.922Z,3.20
2022-12-05T10:10:54.130Z,3.20
2022-12-05T10:13:59.125Z,3.10
2022-12-05T10:17:10.831Z,3.10
2022-12-05T10:20:18.199Z,3.20
2022-12-05T10:24:03.332Z,3.10
2022-12-05T10:27:08.672Z,3.20
2022-12-05T10:30:22.532Z,3.20
2022-12-05T10:33:26.179Z,3.20
2022-12-05T10:36:27.983Z,3.20
2022-12-05T10:39:29.750Z,3.20
2022-12-05T10:42:35.629Z,3.30
2022-12-05T10:45:45.946Z,3.20
2022-12-05T10:48:47.935Z,3.20
2022-12-05T10:51:50.562Z,3.30
2022-12-05T10:55:00.484Z,3.30
2022-12-05T10:58:26.122Z,3.40
2022-12-05T11:01:28.691Z,3.20
2022-12-05T11:04:40.948Z,3.20
2022-12-05T11:07:49.538Z,3.20
2022-12-05T11:11:02.466Z,3.20
2022-12-05T11:14:07.162Z,3.30
2022-12-05T11:17:33.158Z,3.20
2022-12-05T11:20:37.174Z,3.20
2022-12-05T11:23:39.869Z,3.30
2022-12-05T11:26:42.808Z,3.30
2022-12-05T11:29:53.916Z,3.20
2022-12-05T11:33:18.364Z,3.30
2022-12-05T11:36:23.612Z,3.30
2022-12-05T11:39:26.012Z,3.40
2022-12-05T11:42:40.638Z,3.30
2022-12-05T11:45:45.590Z,3.40
2022-12-05T11:49:12.096Z,3.40
2022-12-05T11:52:19.978Z,3.40
2022-12-05T11:55:44.738Z,3.40
2022-12-05T11:59:17.043Z,3.40
2022-12-05T12:02:37.848Z,3.30
2022-12-05T12:05:42.640Z,3.30
2022-12-05T12:09:12.199Z,3.30
2022-12-05T12:12:44.095Z,3.40
2022-12-05T12:15:51.834Z,3.40
2022-12-05T12:19:02.385Z,3.30
2022-12-05T12:22:46.994Z,3.40
2022-12-05T12:25:54.264Z,3.40
2022-12-05T12:29:09.783Z,3.40
2022-12-05T12:32:37.263Z,3.40
2022-12-05T12:35:55.570Z,3.40
2022-12-05T12:39:22.079Z,3.40
2022-12-05T12:42:47.167Z,3.30
2022-12-05T12:46:11.216Z,3.30
2022-12-05T12:49:55.174Z,3.20
2022-12-05T12:53:21.611Z,3.30
2022-12-05T12:56:59.636Z,3.40
2022-12-05T13:00:29.160Z,3.40
2022-12-05T13:03:38.446Z,3.40
2022-12-05T13:06:40.428Z,3.40
2022-12-05T13:10:02.417Z,3.40
2022-12-05T13:13:06.215Z,3.40
2022-12-05T13:16:09.777Z,3.30
2022-12-05T13:19:24.006Z,3.30
2022-12-05T13:22:28.311Z,3.40
2022-12-05T13:25:34.047Z,3.40
2022-12-05T13:28:57.757Z,3.40
2022-12-05T13:32:03.818Z,3.40
2022-12-05T13:35:39.031Z,3.30
2022-12-05T13:39:00.402Z,3.30
2022-12-05T13:42:17.572Z,3.30
2022-12-05T13:45:21.347Z,3.30
2022-12-05T13:48:26.164Z,3.30
2022-12-05T13:51:31.436Z,3.30
2022-12-05T13:54:35.726Z,3.40
2022-12-05T13:57:40.377Z,3.30
2022-12-05T14:00:42.137Z,3.30
2022-12-05T14:04:02.131Z,3.40
2022-12-05T14:07:03.953Z,3.40
2022-12-05T14:10:06.829Z,3.30
2022-12-05T14:13:18.032Z,3.30
2022-12-05T14:16:26.094Z,3.40
2022-12-05T14:20:09.534Z,3.30
2022-12-05T14:23:23.443Z,3.30
2022-12-05T14:26:43.885Z,3.30
2022-12-05T14:30:05.371Z,3.20
2022-12-05T14:33:17.815Z,3.20
2022-12-05T14:36:30.338Z,3.20
2022-12-05T14:39:45.128Z,3.20
2022-12-05T14:42:54.496Z,3.20
2022-12-05T14:46:28.948Z,3.10
2022-12-05T14:49:38.178Z,3.10
2022-12-05T14:52:41.909Z,3.20
2022-12-05T14:55:45.201Z,3.20
2022-12-05T14:59:01.879Z,3.20
2022-12-05T15:02:05.048Z,3.20
2022-12-05T15:05:30.448Z,3.20
2022-12-05T15:08:45.144Z,3.20
2022-12-05T15:11:47.104Z,3.10
2022-12-05T15:15:01.223Z,3.10
2022-12-05T15:18:32.776Z,3.10
2022-12-05T15:21:46.661Z,3.10
2022-12-05T15:24:48.417Z,3.10
2022-12-05T15:27:58.867Z,3.10
2022-12-05T15:31:00.810Z,3.00
2022-12-05T15:34:23.897Z,3.00
2022-12-05T15:38:13.605Z,3.00
2022-12-05T15:41:18.309Z,3.00
2022-12-05T15:44:26.867Z,2.90
2022-12-05T15:47:29.261Z,3.10
2022-12-05T15:50:36.007Z,3.10
2022-12-05T15:53:44.834Z,3.00
2022-12-05T15:56:55.815Z,3.00
2022-12-05T16:00:04.243Z,3.00
2022-12-05T16:03:21.924Z,3.00
2022-12-05T16:06:38.473Z,3.00
2022-12-05T16:09:43.216Z,3.00
2022-12-05T16:12:45.282Z,2.90
2022-12-05T16:15:52.854Z,2.90
2022-12-05T16:19:02.988Z,3.00
2022-12-05T16:22:15.911Z,3.00
2022-12-05T16:25:39.868Z,2.90
2022-12-05T16:28:41.685Z,2.90
2022-12-05T16:31:44.652Z,2.80
2022-12-05T16:34:46.442Z,2.80
2022-12-05T16:37:48.381Z,2.80
2022-12-05T16:40:50.127Z,2.90
2022-12-05T16:43:54.009Z,2.80
2022-12-05T16:46:56.803Z,2.90
2022-12-05T16:49:58.950Z,2.80
2022-12-05T16:53:14.973Z,2.80
2022-12-05T16:56:23.347Z,2.80
2022-12-05T16:59:32.662Z,2.80
2022-12-05T17:02:34.690Z,2.80
2022-12-05T17:05:36.489Z,2.80
2022-12-05T17:08:38.280Z,2.80
2022-12-05T17:11:43.086Z,2.80
2022-12-05T17:14:45.779Z,2.90
2022-12-05T17:17:47.783Z,2.90
2022-12-05T17:20:53.276Z,2.90
2022-12-05T17:23:55.458Z,2.90
2022-12-05T17:26:57.367Z,2.90
2022-12-05T17:29:59.619Z,2.90
2022-12-05T17:33:02.103Z,2.90
2022-12-05T17:36:04.063Z,2.90
2022-12-05T17:39:05.762Z,2.90
2022-12-05T17:42:09.252Z,2.80
2022-12-05T17:45:16.068Z,2.90
2022-12-05T17:48:18.123Z,2.90
2022-12-05T17:51:20.580Z,2.80
2022-12-05T17:54:22.491Z,2.90
2022-12-05T17:57:24.237Z,2.80
2022-12-05T18:00:26.012Z,2.80
2022-12-05T18:03:28.456Z,2.80
2022-12-05T18:06:30.505Z,2.90
2022-12-05T18:09:32.369Z,2.90
2022-12-05T18:12:37.329Z,2.90
2022-12-05T18:15:42.932Z,2.90
2022-12-05T18:18:45.391Z,2.90
2022-12-05T18:21:47.278Z,2.90
2022-12-05T18:24:49.078Z,3.00
2022-12-05T18:27:51.173Z,2.80
2022-12-05T18:31:06.147Z,2.90
2022-12-05T18:34:07.987Z,3.00
2022-12-05T18:37:10.705Z,3.00
2022-12-05T18:40:13.365Z,3.00
2022-12-05T18:43:15.175Z,2.90
2022-12-05T18:46:16.935Z,3.00
2022-12-05T18:49:18.730Z,3.00
2022-12-05T18:52:21.452Z,3.00
2022-12-05T18:55:44.976Z,3.00
2022-12-05T18:58:45.478Z,3.00
2022-12-05T19:01:47.941Z,3.00
2022-12-05T19:04:49.734Z,3.00
2022-12-05T19:07:54.819Z,3.00
2022-12-05T19:10:56.778Z,3.00
2022-12-05T19:14:00.502Z,3.00
2022-12-05T19:17:02.563Z,2.90
2022-12-05T19:20:05.050Z,3.00
2022-12-05T19:23:06.783Z,3.00
2022-12-05T19:26:11.604Z,3.00
2022-12-05T19:29:14.721Z,3.10
2022-12-05T19:32:16.639Z,3.10
2022-12-05T19:35:18.552Z,3.00
2022-12-05T19:38:20.472Z,3.00
2022-12-05T19:41:27.918Z,3.00
2022-12-05T19:44:30.784Z,3.00
2022-12-05T19:47:32.745Z,3.00
2022-12-05T19:50:34.690Z,3.00
2022-12-05T19:53:38.624Z,3.10
2022-12-05T19:56:40.543Z,3.00
2022-12-05T19:59:42.370Z,3.10
2022-12-05T20:02:45.939Z,3.00
2022-12-05T20:05:58.622Z,3.10
2022-12-05T20:09:01.577Z,3.00
2022-12-05T20:12:04.376Z,3.10
2022-12-05T20:15:06.813Z,3.10
2022-12-05T20:18:08.694Z,3.10
2022-12-05T20:21:13.769Z,3.10
2022-12-05T20:24:15.673Z,3.20
2022-12-05T20:27:17.962Z,3.10
2022-12-05T20:30:19.733Z,3.20
2022-12-05T20:33:23.303Z,3.10
2022-12-05T20:36:28.619Z,3.10
2022-12-05T20:39:30.424Z,3.10
2022-12-05T20:42:32.242Z,3.10
2022-12-05T20:45:34.537Z,3.20
2022-12-05T20:48:36.895Z,3.10
2022-12-05T20:51:41.908Z,3.10
2022-12-05T20:54:43.665Z,3.10
2022-12-05T20:57:45.339Z,3.10
2022-12-05T21:00:47.106Z,3.20
2022-12-05T21:03:50.475Z,3.20
2022-12-05T21:06:52.203Z,3.20
2022-12-05T21:09:54.030Z,3.20
2022-12-05T21:12:55.931Z,3.30
2022-12-05T21:15:57.924Z,3.20
2022-12-05T21:19:00.440Z,3.20
2022-12-05T21:22:02.376Z,3.20
2022-12-05T21:25:04.387Z,3.30
2022-12-05T21:28:06.209Z,3.30
2022-12-05T21:31:24.653Z,3.20
2022-12-05T21:34:26.725Z,3.20
2022-12-05T21:37:28.509Z,3.20
2022-12-05T21:40:30.385Z,3.20
2022-12-05T21:43:33.921Z,3.20
2022-12-05T21:46:36.397Z,3.20
2022-12-05T21:49:41.766Z,3.30
2022-12-05T21:52:58.884Z,3.20
2022-12-05T21:56:18.779Z,3.20
2022-12-05T21:59:20.568Z,3.20
2022-12-05T22:02:22.474Z,3.20
2022-12-05T22:05:24.451Z,3.20
2022-12-05T22:08:26.484Z,3.30
2022-12-05T22:11:28.541Z,3.30
2022-12-05T22:14:30.388Z,3.30
2022-12-05T22:17:32.347Z,3.30
2022-12-05T22:20:34.359Z,3.30
2022-12-05T22:23:36.362Z,3.30
2022-12-05T22:26:38.441Z,3.30
2022-12-05T22:32:46.280Z,3.40
2022-12-05T22:35:53.341Z,3.40
2022-12-05T22:39:01.112Z,3.50
2022-12-05T22:42:11.958Z,3.40
2022-12-05T22:45:22.304Z,3.40
2022-12-05T22:48:29.343Z,3.30
2022-12-05T22:51:32.557Z,3.30
2022-12-05T22:54:34.356Z,3.40
2022-12-05T22:57:36.039Z,3.30
2022-12-05T23:00:38.219Z,3.30
2022-12-05T23:03:41.274Z,3.30
2022-12-05T23:06:43.262Z,3.30
2022-12-05T23:09:45.146Z,3.30
2022-12-05T23:12:47.091Z,3.30
2022-12-05T23:15:54.324Z,3.40
2022-12-05T23:19:01.954Z,3.30
2022-12-05T23:22:03.855Z,3.30
2022-12-05T23:25:06.527Z,3.40
2022-12-05T23:28:09.265Z,3.40
2022-12-05T23:31:12.271Z,3.40
2022-12-05T23:34:29.476Z,3.40
2022-12-05T23:37:31.362Z,3.40
2022-12-05T23:40:33.520Z,3.40
2022-12-05T23:43:52.067Z,3.40
2022-12-05T23:47:00.215Z,3.40
2022-12-05T23:50:08.643Z,3.40
2022-12-05T23:53:19.870Z,3.40
2022-12-05T23:56:32.920Z,3.40
2022-12-05T23:59:39.248Z,3.40
